Tracy, Canada
Current Conditions -  °F | °C
As of 10:00 PM on Saturday 25 Oct 2014 (Local Time) from CYRQ Reporting Station
Overcast Overcast  
Wind Chill: 46°   Ceiling: 1200
Heat Index: 48°   Visibility: 9mi
Dew Point: 46°   Wind: 5mph
Humidity: 93%   Direction: 200°SSW
Pressure: 29.39"   Gusts: NA
Location:  46.02°N, 73.17°W
Report Text: CYRQ 260200Z AUTO 20004KT 9SM BKN012 OVC019 09/08 A2939 RMK PCPN 1.0MM PAST HR SLP955
Loading
Personal Weather Stations






























Interactive Weather Map
Tropical Storm Tracking
New forecast layout! Learn more

10-Day Weather Forecast

Advertisements
Track Severe Weather on mobile